Terminal Aerodrome Forecast
Issued by NWS Wilmington, OH

Current Version | Previous Version | Text Only | Print | Product List | Glossary Off
Versions: 1 2 3 4 5 6 7 8 9 10 11 12 13 14 15 16 17 18 19 20 21 22 23 24

210
FTUS41 KILN 041132
TAFDAY
TAF
KDAY 041132Z 0412/0512 23009KT P6SM OVC080
     FM041500 24014G22KT 4SM -SHRA OVC040
     FM041800 24014G22KT 4SM -SHRA BR VCTS SCT015 OVC025CB
     FM042100 32014KT P6SM VCSH BKN015 OVC022
     FM050100 33012KT P6SM VCSH OVC012
     FM050500 32010KT P6SM VCSH OVC006=

USA.gov is the U.S. government's official web portal to all federal, state and local government web resources and services.